Time;durP1;ratioP1;P1;durP2;ratioP2;P2;SDS_P1;SDS_P2;PMS_P1;PMS_P2;Temp;Humidity;BMP_temperature;BMP_pressure;BME280_temperature;BME280_humidity;BME280_pressure;Samples;Min_cycle;Max_cycle;Signal;HPM_P1;HPM_P2
2021/07/03 00:01:09;;;;;;;3.70;3.43;;;;;;;24.71;44.95;94157.67;828634;71;30334;-78
2021/07/03 00:16:09;;;;;;;3.13;3.03;;;;;;;24.61;44.91;94163.83;835147;71;30387;-80
2021/07/03 00:31:09;;;;;;;3.30;3.10;;;;;;;24.43;45.68;94179.33;834093;71;30856;-79
2021/07/03 00:46:09;;;;;;;3.00;2.80;;;;;;;24.54;45.64;94188.17;828594;71;29698;-78
2021/07/03 01:01:14;;;;;;;3.20;2.90;;;;;;;24.44;45.57;94186.23;835553;71;32744;-76
2021/07/03 01:16:14;;;;;;;3.10;2.90;;;;;;;24.49;45.38;94180.47;834009;71;33273;-78
2021/07/03 01:31:09;;;;;;;2.97;2.77;;;;;;;24.39;45.90;94173.20;834925;71;30330;-78
2021/07/03 01:46:08;;;;;;;2.43;2.30;;;;;;;24.37;44.96;94164.77;835584;71;29665;-79
2021/07/03 02:01:15;;;;;;;2.37;2.27;;;;;;;24.25;44.82;94165.94;827754;71;32736;-76
2021/07/03 02:16:11;;;;;;;2.53;2.37;;;;;;;23.58;43.99;94153.38;829940;70;31435;-81
2021/07/03 02:31:08;;;;;;;2.23;2.13;;;;;;;22.18;48.01;94151.81;830344;70;29701;-82
2021/07/03 02:46:10;;;;;;;2.83;2.70;;;;;;;21.70;49.33;94179.84;836104;70;30524;-82
2021/07/03 03:16:09;;;;;;;2.72;2.62;;;;;;;21.15;50.58;94201.12;834338;71;30166;-80
2021/07/03 03:31:15;;;;;;;2.80;2.60;;;;;;;21.43;50.47;94216.53;828189;71;32720;-81
2021/07/03 03:46:15;;;;;;;3.50;3.30;;;;;;;21.95;49.52;94208.13;827807;71;33455;-80
2021/07/03 04:01:15;;;;;;;3.27;3.07;;;;;;;22.57;48.46;94208.30;827797;71;32658;-80
2021/07/03 04:16:15;;;;;;;4.20;3.60;;;;;;;23.28;47.15;94215.83;835894;71;31687;-82
2021/07/03 04:31:11;;;;;;;3.43;3.23;;;;;;;23.48;46.70;94214.94;830423;70;29274;-82
2021/07/03 04:46:09;;;;;;;3.67;3.47;;;;;;;23.92;46.05;94222.00;826106;71;29480;-80
2021/07/03 05:01:15;;;;;;;5.20;4.70;;;;;;;24.40;44.68;94233.75;828661;71;31771;-80
2021/07/03 05:16:08;;;;;;;4.40;4.10;;;;;;;24.27;44.49;94232.58;828546;71;28760;-82
2021/07/03 05:31:16;;;;;;;5.00;4.60;;;;;;;23.99;44.79;94249.59;827541;71;31774;-79
2021/07/03 05:46:13;;;;;;;5.50;5.00;;;;;;;25.10;42.93;94234.12;828041;71;31528;-79
2021/07/03 06:01:18;;;;;;;6.10;5.60;;;;;;;24.72;44.38;94252.56;819636;71;31815;-82
2021/07/03 06:16:42;;;;;;;6.00;5.60;;;;;;;24.76;43.99;94242.59;810406;72;31798;-85
2021/07/03 06:31:09;;;;;;;12.53;8.77;;;;;;;25.39;42.93;94239.44;834123;71;28698;-78
2021/07/03 06:46:15;;;;;;;6.10;5.60;;;;;;;25.46;41.97;94252.83;833879;71;31764;-78
2021/07/03 07:01:09;;;;;;;6.00;5.50;;;;;;;24.61;43.36;94256.40;834099;71;28670;-78
2021/07/03 07:16:14;;;;;;;6.70;5.13;;;;;;;24.27;43.61;94249.45;821102;71;32087;-76
2021/07/03 07:31:14;;;;;;;5.77;5.37;;;;;;;24.84;43.14;94245.26;821204;71;31743;-80
2021/07/03 07:46:08;;;;;;;6.50;6.00;;;;;;;25.44;42.41;94240.95;828331;71;28620;-77
2021/07/03 08:01:09;;;;;;;5.83;5.43;;;;;;;25.26;41.17;94257.11;833955;71;28692;-76
2021/07/03 08:16:10;;;;;;;6.10;5.57;;;;;;;25.27;40.93;94264.03;828237;71;29190;-79
2021/07/03 08:31:15;;;;;;;6.30;4.97;;;;;;;25.29;42.26;94264.41;833875;71;31661;-79
2021/07/03 08:46:09;;;;;;;5.20;4.70;;;;;;;24.96;42.32;94265.02;828354;71;29277;-80
2021/07/03 09:16:08;;;;;;;6.30;5.80;;;;;;;25.28;42.03;94236.00;819714;71;28760;-78
2021/07/03 09:31:18;;;;;;;6.73;6.13;;;;;;;25.42;42.48;94238.64;827312;71;32270;-76
2021/07/03 09:46:35;;;;;;;6.77;6.27;;;;;;;26.29;39.97;94230.95;815751;71;31948;-77
2021/07/03 10:01:30;;;;;;;7.77;7.17;;;;;;;26.94;38.90;94213.70;827881;71;31833;-75
2021/07/03 10:16:22;;;;;;;7.90;7.30;;;;;;;27.86;36.71;94211.16;826998;71;31716;-75
2021/07/03 10:31:16;;;;;;;10.00;9.27;;;;;;;27.33;37.46;94211.20;827318;71;31750;-77
2021/07/03 10:46:28;;;;;;;8.40;7.80;;;;;;;27.10;37.38;94197.77;833811;71;31711;-76
2021/07/03 11:01:16;;;;;;;8.90;8.20;;;;;;;27.18;100.00;123554.15;829155;71;28651;-79
2021/07/03 11:16:11;;;;;;;10.90;10.10;;;;;;;26.78;37.93;94178.67;829188;71;28712;-79
2021/07/03 11:31:22;;;;;;;10.07;9.27;;;;;;;26.97;36.99;94183.30;822546;71;31857;-77
2021/07/03 11:46:07;;;;;;;9.00;8.30;;;;;;;;;;833716;71;27668;-76
2021/07/03 12:01:17;;;;;;;10.07;9.30;;;;;;;;;;827241;71;30847;-80
2021/07/03 12:16:19;;;;;;;11.03;10.10;;;;;;;27.52;37.54;94158.05;829908;71;30750;-85
2021/07/03 12:31:15;;;;;;;11.90;10.80;;;;;;;27.54;36.40;94153.61;828550;71;27637;-78
2021/07/03 12:46:22;;;;;;;11.63;10.63;;;;;;;27.59;35.75;94145.05;827261;71;30809;-77
2021/07/03 13:01:10;;;;;;;9.43;8.60;;;;;;;27.70;34.97;94143.58;828038;71;28355;-76
2021/07/03 13:16:15;;;;;;;10.60;9.73;;;;;;;28.00;35.44;94124.47;827233;71;31755;-76
2021/07/03 13:31:08;;;;;;;8.97;8.27;;;;;;;28.14;35.20;94125.03;829657;71;29701;-77
2021/07/03 13:46:08;;;;;;;8.57;7.87;;;;;;;27.76;35.88;94125.17;820529;71;28708;-76
2021/07/03 14:01:16;;;;;;;9.30;8.50;;;;;;;27.31;36.36;94132.14;821300;71;32781;-78
2021/07/03 14:16:14;;;;;;;8.37;7.77;;;;;;;27.30;36.37;94131.95;819606;71;31598;-76
2021/07/03 14:31:15;;;;;;;8.27;7.67;;;;;;;26.93;36.77;123554.15;827384;71;33220;-76
2021/07/03 14:46:13;;;;;;;6.93;6.33;;;;;;;26.76;37.58;94146.56;828427;71;32616;-77
2021/07/03 15:16:08;;;;;;;7.93;7.33;;;;;;;25.84;38.54;94137.47;828489;71;29698;-82
2021/07/03 15:31:13;;;;;;;8.00;7.40;;;;;;;25.62;38.88;94133.39;828141;71;33258;-73
2021/07/03 15:46:18;;;;;;;7.47;6.97;;;;;;;25.21;38.95;94125.34;827271;70;32898;-78
2021/07/03 16:01:08;;;;;;;7.80;7.20;;;;;;;24.90;39.72;94138.47;834221;71;29690;-80
2021/07/03 16:16:14;;;;;;;8.30;7.60;;;;;;;24.76;39.97;94151.34;827644;71;32678;-78
2021/07/03 16:31:09;;;;;;;7.80;7.20;;;;;;;24.51;41.04;94155.98;834481;71;29705;-76
2021/07/03 16:46:13;;;;;;;7.67;6.97;;;;;;;24.26;42.15;94162.68;828221;71;32568;-79
2021/07/03 17:01:09;;;;;;;8.90;8.20;;;;;;;23.99;43.08;94161.71;834180;71;29654;-78
2021/07/03 17:16:15;;;;;;;8.13;7.40;;;;;;;23.76;44.51;94164.70;827710;71;32763;-77
2021/07/03 17:31:09;;;;;;;7.87;7.27;;;;;;;23.85;45.14;94157.09;828407;71;29711;-77
2021/07/03 17:46:09;;;;;;;9.87;8.97;;;;;;;23.37;45.90;94174.16;829850;71;30119;-77
2021/07/03 18:01:16;;;;;;;8.60;7.90;;;;;;;23.44;47.35;94194.07;827383;71;33128;-76
2021/07/03 18:16:10;;;;;;;9.27;8.47;;;;;;;23.47;48.89;94203.46;828581;71;30741;-76
2021/07/03 18:31:11;;;;;;;10.17;9.27;;;;;;;24.18;47.39;94209.59;828242;71;30333;-77
2021/07/03 18:46:08;;;;;;;9.33;8.63;;;;;;;24.61;47.45;94233.01;833933;71;29778;-77
2021/07/03 19:01:08;;;;;;;8.93;8.23;;;;;;;23.94;46.39;94248.61;834077;71;29761;-76
2021/07/03 19:16:10;;;;;;;7.73;7.13;;;;;;;23.28;47.78;94264.78;823969;71;30885;-74
2021/07/03 19:31:15;;;;;;;7.40;6.90;;;;;;;23.11;47.89;94274.81;833835;71;32702;-76
2021/07/03 19:46:14;;;;;;;7.17;6.67;;;;;;;22.37;49.42;94291.23;819559;70;32845;-76
2021/07/03 20:01:14;;;;;;;8.40;7.70;;;;;;;21.94;50.49;94290.19;823142;71;32886;-76
2021/07/03 20:16:08;;;;;;;10.17;9.27;;;;;;;21.71;51.50;94278.84;819744;71;29793;-76
2021/07/03 20:31:15;;;;;;;8.00;7.30;;;;;;;21.57;51.99;94263.42;822833;71;33395;-75
2021/07/03 20:46:19;;;;;;;7.13;6.60;;;;;;;21.39;52.51;94257.83;821486;71;32833;-76
2021/07/03 21:16:25;;;;;;;6.77;6.27;;;;;;;23.35;49.54;94249.32;821426;71;32801;-73
2021/07/03 21:31:09;;;;;;;6.87;6.37;;;;;;;23.97;47.86;94238.48;828229;71;30277;-77
2021/07/03 21:46:14;;;;;;;7.03;6.53;;;;;;;24.25;47.08;94237.00;823117;71;32795;-76
2021/07/03 22:01:08;;;;;;;6.70;6.20;;;;;;;24.31;46.60;94240.84;821560;71;30294;-77
2021/07/03 22:16:09;;;;;;;6.80;6.30;;;;;;;24.34;46.51;94227.99;821332;71;30414;-76
2021/07/03 22:31:08;;;;;;;6.00;5.60;;;;;;;24.50;45.98;94220.19;821888;71;29799;-76
2021/07/03 22:46:09;;;;;;;5.53;5.13;;;;;;;24.49;45.43;94215.92;823945;71;30345;-76
2021/07/03 23:01:14;;;;;;;5.33;4.93;;;;;;;24.45;45.62;94211.89;821338;71;32782;-75
2021/07/03 23:16:19;;;;;;;5.30;4.90;;;;;;;24.56;45.34;94212.70;821639;71;32753;-79
2021/07/03 23:31:09;;;;;;;5.37;5.03;;;;;;;24.56;45.57;94209.27;826279;71;31443;-76
2021/07/03 23:46:12;;;;;;;5.23;4.93;;;;;;;24.55;45.85;94189.72;828236;71;31984;-76
